createdAt,value
2018-04-27T00:00:31.626Z,1011.45
2018-04-27T00:01:31.523Z,1011.44
2018-04-27T00:02:31.421Z,1011.44
2018-04-27T00:03:31.329Z,1011.44
2018-04-27T00:04:31.225Z,1011.37
2018-04-27T00:05:31.123Z,1011.32
2018-04-27T00:06:31.018Z,1011.33
2018-04-27T00:07:30.915Z,1011.31
2018-04-27T00:08:30.859Z,1011.31
2018-04-27T00:09:30.712Z,1011.34
2018-04-27T00:10:30.606Z,1011.32
2018-04-27T00:11:30.515Z,1011.35
2018-04-27T00:12:30.411Z,1011.30
2018-04-27T00:13:30.307Z,1011.30
2018-04-27T00:14:30.204Z,1011.28
2018-04-27T00:15:30.100Z,1011.31
2018-04-27T00:16:29.998Z,1011.30
2018-04-27T00:17:29.895Z,1011.31
2018-04-27T00:18:29.791Z,1011.37
2018-04-27T00:19:29.688Z,1011.40
2018-04-27T00:20:29.597Z,1011.39
2018-04-27T00:21:29.493Z,1011.41
2018-04-27T00:22:29.390Z,1011.42
2018-04-27T00:23:29.286Z,1011.45
2018-04-27T00:24:29.183Z,1011.44
2018-04-27T00:25:29.079Z,1011.42
2018-04-27T00:26:28.977Z,1011.43
2018-04-27T00:27:28.873Z,1011.42
2018-04-27T00:28:28.771Z,1011.41
2018-04-27T00:29:28.682Z,1011.39
2018-04-27T00:30:28.575Z,1011.36
2018-04-27T00:31:28.471Z,1011.36
2018-04-27T00:32:28.368Z,1011.36
2018-04-27T00:33:28.265Z,1011.31
2018-04-27T00:34:28.190Z,1011.28
2018-04-27T00:35:28.059Z,1011.24
2018-04-27T00:36:27.956Z,1011.23
2018-04-27T00:37:27.853Z,1011.29
2018-04-27T00:38:27.766Z,1011.30
2018-04-27T00:39:27.662Z,1011.35
2018-04-27T00:40:27.855Z,1011.38
2018-04-27T00:41:27.453Z,1011.38
2018-04-27T00:42:27.349Z,1011.40
2018-04-27T00:43:27.245Z,1011.40
2018-04-27T00:44:27.146Z,1011.36
2018-04-27T00:45:27.039Z,1011.34
2018-04-27T00:46:26.948Z,1011.34
2018-04-27T00:47:26.844Z,1011.36
2018-04-27T00:48:26.741Z,1011.37
2018-04-27T00:49:26.638Z,1011.32
2018-04-27T00:50:26.534Z,1011.33
2018-04-27T00:51:26.432Z,1011.34
2018-04-27T00:52:26.329Z,1011.32
2018-04-27T00:53:26.224Z,1011.31
2018-04-27T00:54:26.122Z,1011.35
2018-04-27T00:55:26.030Z,1011.30
2018-04-27T00:56:25.927Z,1011.32
2018-04-27T00:57:25.825Z,1011.29
2018-04-27T00:58:25.721Z,1011.31
2018-04-27T00:59:25.623Z,1011.28
2018-04-27T01:00:25.815Z,1011.23
2018-04-27T01:01:25.411Z,1011.21
2018-04-27T01:02:25.312Z,1011.25
2018-04-27T01:03:25.207Z,1011.28
2018-04-27T01:04:25.102Z,1011.27
2018-04-27T01:05:24.998Z,1011.22
2018-04-27T01:06:24.908Z,1011.28
2018-04-27T01:07:24.817Z,1011.25
2018-04-27T01:08:24.701Z,1011.26
2018-04-27T01:09:24.597Z,1011.24
2018-04-27T01:10:24.494Z,1011.25
2018-04-27T01:11:24.390Z,1011.20
2018-04-27T01:12:24.288Z,1011.21
2018-04-27T01:13:24.184Z,1011.19
2018-04-27T01:14:24.081Z,1011.19
2018-04-27T01:15:23.978Z,1011.18
2018-04-27T01:16:23.874Z,1011.21
2018-04-27T01:17:23.771Z,1011.20
2018-04-27T01:18:23.669Z,1011.15
2018-04-27T01:19:23.567Z,1011.13
2018-04-27T01:20:23.475Z,1011.12
2018-04-27T01:21:23.371Z,1011.14
2018-04-27T01:22:23.267Z,1011.14
2018-04-27T01:23:23.165Z,1011.13
2018-04-27T01:24:23.061Z,1011.21
2018-04-27T01:25:22.959Z,1011.16
2018-04-27T01:26:22.855Z,1011.13
2018-04-27T01:27:22.752Z,1011.15
2018-04-27T01:28:22.648Z,1011.12
2018-04-27T01:29:22.543Z,1011.09
2018-04-27T01:30:22.440Z,1011.08
2018-04-27T01:31:22.337Z,1011.11
2018-04-27T01:32:22.234Z,1011.11
2018-04-27T01:33:22.134Z,1011.11
2018-04-27T01:34:22.038Z,1011.15
2018-04-27T01:35:21.935Z,1011.16
2018-04-27T01:36:21.832Z,1011.21
2018-04-27T01:37:21.730Z,1011.21
2018-04-27T01:38:21.625Z,1011.21
2018-04-27T01:39:21.522Z,1011.21
2018-04-27T01:40:21.418Z,1011.20
2018-04-27T01:41:21.315Z,1011.18
2018-04-27T01:42:21.213Z,1011.23
2018-04-27T01:43:21.110Z,1011.17
2018-04-27T01:44:21.006Z,1011.19
2018-04-27T01:45:20.903Z,1011.22
2018-04-27T01:46:20.799Z,1011.24
2018-04-27T01:47:20.694Z,1011.29
2018-04-27T01:48:20.592Z,1011.26
2018-04-27T01:49:20.490Z,1011.28
2018-04-27T01:50:20.386Z,1011.28
2018-04-27T01:51:20.294Z,1011.31
2018-04-27T01:52:20.180Z,1011.30
2018-04-27T01:53:20.076Z,1011.31
2018-04-27T01:54:19.984Z,1011.28
2018-04-27T01:55:19.883Z,1011.29
2018-04-27T01:56:19.778Z,1011.28
2018-04-27T01:57:19.675Z,1011.28
2018-04-27T01:58:19.572Z,1011.29
2018-04-27T01:59:19.468Z,1011.31
2018-04-27T02:00:19.365Z,1011.30
2018-04-27T02:01:19.261Z,1011.31
2018-04-27T02:02:19.158Z,1011.31
2018-04-27T02:03:19.053Z,1011.35
2018-04-27T02:04:18.951Z,1011.30
2018-04-27T02:05:18.847Z,1011.32
2018-04-27T02:06:18.745Z,1011.29
2018-04-27T02:07:18.641Z,1011.30
2018-04-27T02:08:18.538Z,1011.30
2018-04-27T02:09:18.436Z,1011.25
2018-04-27T02:10:18.331Z,1011.26
2018-04-27T02:11:18.231Z,1011.24
2018-04-27T02:12:18.120Z,1011.22
2018-04-27T02:13:18.022Z,1011.23
2018-04-27T02:14:17.918Z,1011.23
2018-04-27T02:15:17.815Z,1011.20
2018-04-27T02:16:17.713Z,1011.20
2018-04-27T02:17:17.609Z,1011.22
2018-04-27T02:18:17.513Z,1011.26
2018-04-27T02:19:17.401Z,1011.21
2018-04-27T02:20:17.298Z,1011.26
2018-04-27T02:21:17.196Z,1011.26
2018-04-27T02:22:17.093Z,1011.26
2018-04-27T02:23:16.988Z,1011.30
2018-04-27T02:24:16.890Z,1011.29
2018-04-27T02:25:16.782Z,1011.29
2018-04-27T02:26:16.681Z,1011.30
2018-04-27T02:27:16.575Z,1011.30
2018-04-27T02:28:16.472Z,1011.32
2018-04-27T02:29:16.369Z,1011.27
2018-04-27T02:30:16.270Z,1011.27
2018-04-27T02:31:16.162Z,1011.26
2018-04-27T02:32:16.058Z,1011.24
2018-04-27T02:33:15.998Z,1011.27
2018-04-27T02:34:15.854Z,1011.23
2018-04-27T02:35:15.757Z,1011.29
2018-04-27T02:36:15.649Z,1011.32
2018-04-27T02:37:15.543Z,1011.35
2018-04-27T02:38:15.438Z,1011.31
2018-04-27T02:39:15.334Z,1011.34
2018-04-27T02:40:15.231Z,1011.33
2018-04-27T02:41:15.128Z,1011.34
2018-04-27T02:42:15.025Z,1011.32
2018-04-27T02:43:14.929Z,1011.33
2018-04-27T02:44:14.817Z,1011.32
2018-04-27T02:45:14.715Z,1011.31
2018-04-27T02:46:14.613Z,1011.25
2018-04-27T02:47:14.506Z,1011.26
2018-04-27T02:48:14.405Z,1011.23
2018-04-27T02:49:14.306Z,1011.26
2018-04-27T02:50:14.199Z,1011.22
2018-04-27T02:51:14.099Z,1011.22
2018-04-27T02:52:13.993Z,1011.24
2018-04-27T02:53:13.890Z,1011.22
2018-04-27T02:54:13.785Z,1011.22
2018-04-27T02:55:13.689Z,1011.23
2018-04-27T02:56:13.579Z,1011.24
2018-04-27T02:57:13.476Z,1011.25
2018-04-27T02:58:13.372Z,1011.26
2018-04-27T02:59:13.268Z,1011.28
2018-04-27T03:00:13.169Z,1011.30
2018-04-27T03:01:13.062Z,1011.25
2018-04-27T03:02:12.960Z,1011.28
2018-04-27T03:03:12.856Z,1011.23
2018-04-27T03:04:12.741Z,1011.26
2018-04-27T03:05:12.886Z,1011.23
2018-04-27T03:06:12.533Z,1011.27
2018-04-27T03:07:12.431Z,1011.25
2018-04-27T03:08:12.326Z,1011.21
2018-04-27T03:09:12.222Z,1011.25
2018-04-27T03:10:12.123Z,1011.22
2018-04-27T03:11:12.067Z,1011.25
2018-04-27T03:12:11.916Z,1011.25
2018-04-27T03:13:11.809Z,1011.22
2018-04-27T03:14:11.706Z,1011.16
2018-04-27T03:15:11.602Z,1011.22
2018-04-27T03:16:11.498Z,1011.23
2018-04-27T03:17:11.396Z,1011.17
2018-04-27T03:18:11.293Z,1011.20
2018-04-27T03:19:11.189Z,1011.14
2018-04-27T03:20:11.086Z,1011.18
2018-04-27T03:21:10.983Z,1011.18
2018-04-27T03:22:10.879Z,1011.17
2018-04-27T03:23:10.776Z,1011.19
2018-04-27T03:24:10.675Z,1011.16
2018-04-27T03:25:10.819Z,1011.18
2018-04-27T03:26:10.465Z,1011.20
2018-04-27T03:27:10.352Z,1011.15
2018-04-27T03:28:10.254Z,1011.16
2018-04-27T03:29:10.145Z,1011.17
2018-04-27T03:30:10.042Z,1011.21
2018-04-27T03:31:09.939Z,1011.15
2018-04-27T03:32:09.835Z,1011.18
2018-04-27T03:33:09.732Z,1011.10
2018-04-27T03:34:09.629Z,1011.14
2018-04-27T03:35:09.525Z,1011.17
2018-04-27T03:36:09.421Z,1011.17
2018-04-27T03:37:09.319Z,1011.17
2018-04-27T03:38:09.215Z,1011.15
2018-04-27T03:39:09.112Z,1011.20
2018-04-27T03:40:09.008Z,1011.21
2018-04-27T03:41:08.909Z,1011.21
2018-04-27T03:42:08.801Z,1011.17
2018-04-27T03:43:08.697Z,1011.20
2018-04-27T03:44:08.594Z,1011.17
2018-04-27T03:45:08.479Z,1011.21
2018-04-27T03:46:08.375Z,1011.17
2018-04-27T03:47:08.271Z,1011.18
2018-04-27T03:48:08.168Z,1011.22
2018-04-27T03:49:08.064Z,1011.18
2018-04-27T03:50:07.962Z,1011.21
2018-04-27T03:51:07.861Z,1011.20
2018-04-27T03:52:07.755Z,1011.22
2018-04-27T03:53:07.651Z,1011.21
2018-04-27T03:54:07.547Z,1011.20
2018-04-27T03:55:07.444Z,1011.24
2018-04-27T03:56:07.341Z,1011.19
2018-04-27T03:57:07.238Z,1011.17
2018-04-27T03:58:07.135Z,1011.20
2018-04-27T03:59:07.031Z,1011.19
2018-04-27T04:00:06.935Z,1011.21
2018-04-27T04:01:06.998Z,1011.19
2018-04-27T04:02:06.710Z,1011.19
2018-04-27T04:03:06.606Z,1011.22
2018-04-27T04:04:06.503Z,1011.25
2018-04-27T04:05:06.400Z,1011.26
2018-04-27T04:06:06.296Z,1011.22
2018-04-27T04:07:06.195Z,1011.23
2018-04-27T04:08:06.090Z,1011.28
2018-04-27T04:09:05.989Z,1011.19
2018-04-27T04:10:05.882Z,1011.24
2018-04-27T04:11:05.780Z,1011.25
2018-04-27T04:12:05.676Z,1011.24
2018-04-27T04:13:05.573Z,1011.31
2018-04-27T04:14:05.470Z,1011.30
2018-04-27T04:15:05.366Z,1011.33
2018-04-27T04:16:05.263Z,1011.37
2018-04-27T04:17:05.160Z,1011.36
2018-04-27T04:18:05.056Z,1011.40
2018-04-27T04:19:04.953Z,1011.41
2018-04-27T04:20:04.854Z,1011.43
2018-04-27T04:21:04.746Z,1011.43
2018-04-27T04:22:04.643Z,1011.45
2018-04-27T04:23:04.539Z,1011.46
2018-04-27T04:24:04.436Z,1011.49
2018-04-27T04:25:04.333Z,1011.46
2018-04-27T04:26:04.230Z,1011.46
2018-04-27T04:27:04.127Z,1011.43
2018-04-27T04:28:04.024Z,1011.48
2018-04-27T04:29:03.919Z,1011.48
2018-04-27T04:30:03.816Z,1011.48
2018-04-27T04:31:03.713Z,1011.50
2018-04-27T04:32:03.610Z,1011.46
2018-04-27T04:33:03.506Z,1011.44
2018-04-27T04:34:03.404Z,1011.46
2018-04-27T04:35:03.300Z,1011.51
2018-04-27T04:36:03.199Z,1011.51
2018-04-27T04:37:03.105Z,1011.51
2018-04-27T04:38:03.001Z,1011.52
2018-04-27T04:39:02.897Z,1011.58
2018-04-27T04:40:03.045Z,1011.55
2018-04-27T04:41:02.691Z,1011.55
2018-04-27T04:42:02.589Z,1011.55
2018-04-27T04:43:02.485Z,1011.55
2018-04-27T04:44:02.383Z,1011.55
2018-04-27T04:45:02.333Z,1011.53
2018-04-27T04:46:02.192Z,1011.51
2018-04-27T04:47:02.085Z,1011.56
2018-04-27T04:48:01.982Z,1011.56
2018-04-27T04:49:01.879Z,1011.55
2018-04-27T04:50:01.776Z,1011.57
2018-04-27T04:51:01.684Z,1011.56
2018-04-27T04:52:01.581Z,1011.57
2018-04-27T04:53:01.477Z,1011.55
2018-04-27T04:54:01.373Z,1011.53
2018-04-27T04:55:01.270Z,1011.58
2018-04-27T04:56:01.167Z,1011.59
2018-04-27T04:57:01.065Z,1011.62
2018-04-27T04:58:00.974Z,1011.63
2018-04-27T04:59:00.870Z,1011.66
2018-04-27T05:00:00.767Z,1011.65
2018-04-27T05:01:00.663Z,1011.67
2018-04-27T05:02:00.561Z,1011.71
2018-04-27T05:03:00.506Z,1011.69
2018-04-27T05:04:00.366Z,1011.69
2018-04-27T05:05:00.262Z,1011.72
2018-04-27T05:06:00.161Z,1011.65
2018-04-27T05:07:00.056Z,1011.69
2018-04-27T05:07:59.953Z,1011.69
2018-04-27T05:08:59.849Z,1011.72
2018-04-27T05:09:59.758Z,1011.74
2018-04-27T05:10:59.655Z,1011.73
2018-04-27T05:11:59.552Z,1011.71
2018-04-27T05:12:59.451Z,1011.78
2018-04-27T05:13:59.345Z,1011.76
2018-04-27T05:14:59.242Z,1011.80
2018-04-27T05:15:59.151Z,1011.80
2018-04-27T05:16:59.047Z,1011.78
2018-04-27T05:17:58.944Z,1011.81
2018-04-27T05:18:58.840Z,1011.80
2018-04-27T05:19:58.737Z,1011.79
2018-04-27T05:20:58.634Z,1011.82
2018-04-27T05:21:58.533Z,1011.85
2018-04-27T05:22:58.441Z,1011.86
2018-04-27T05:23:58.338Z,1011.87
2018-04-27T05:24:58.234Z,1011.86
2018-04-27T05:25:58.136Z,1011.85
2018-04-27T05:26:58.030Z,1011.88
2018-04-27T05:27:57.936Z,1011.88
2018-04-27T05:28:57.833Z,1011.88
2018-04-27T05:29:57.733Z,1011.92
2018-04-27T05:30:57.628Z,1011.90
2018-04-27T05:31:57.535Z,1011.90
2018-04-27T05:32:57.433Z,1011.89
2018-04-27T05:33:57.328Z,1011.96
2018-04-27T05:34:57.226Z,1011.97
2018-04-27T05:35:57.128Z,1011.92
2018-04-27T05:36:57.027Z,1011.97
2018-04-27T05:37:56.930Z,1011.95
2018-04-27T05:38:56.823Z,1011.91
2018-04-27T05:39:56.970Z,1011.91
2018-04-27T05:40:56.617Z,1011.95
2018-04-27T05:41:56.527Z,1011.90
2018-04-27T05:42:56.424Z,1011.87
2018-04-27T05:43:56.321Z,1011.96
2018-04-27T05:44:56.229Z,1011.92
2018-04-27T05:45:56.126Z,1011.91
2018-04-27T05:46:56.026Z,1011.92
2018-04-27T05:47:55.932Z,1011.94
2018-04-27T05:48:55.851Z,1011.94
2018-04-27T05:49:55.724Z,1011.95
2018-04-27T05:50:55.634Z,1011.94
2018-04-27T05:51:55.531Z,1011.92
2018-04-27T05:52:55.428Z,1011.94
2018-04-27T05:53:55.337Z,1011.95
2018-04-27T05:54:55.233Z,1011.94
2018-04-27T05:55:55.142Z,1011.94
2018-04-27T05:56:55.039Z,1011.95
2018-04-27T05:57:54.939Z,1011.98
2018-04-27T05:58:54.846Z,1011.96
2018-04-27T05:59:55.027Z,1011.98
2018-04-27T06:00:54.651Z,1011.94
2018-04-27T06:01:54.547Z,1011.95
2018-04-27T06:02:54.458Z,1011.95
2018-04-27T06:03:54.355Z,1011.96
2018-04-27T06:04:54.263Z,1011.97
2018-04-27T06:05:54.159Z,1011.97
2018-04-27T06:06:54.070Z,1011.95
2018-04-27T06:07:53.966Z,1011.99
2018-04-27T06:08:53.875Z,1011.98
2018-04-27T06:09:53.771Z,1011.98
2018-04-27T06:10:53.682Z,1011.95
2018-04-27T06:11:53.579Z,1011.94
2018-04-27T06:12:53.486Z,1011.95
2018-04-27T06:13:53.383Z,1011.98
2018-04-27T06:14:53.292Z,1011.95
2018-04-27T06:15:53.201Z,1011.98
2018-04-27T06:16:53.097Z,1011.96
2018-04-27T06:17:53.011Z,1011.94
2018-04-27T06:18:52.904Z,1011.96
2018-04-27T06:19:53.063Z,1011.95
2018-04-27T06:20:52.722Z,1011.95
2018-04-27T06:21:52.621Z,1011.97
2018-04-27T06:22:52.532Z,1011.96
2018-04-27T06:23:52.437Z,1011.96
2018-04-27T06:24:52.334Z,1011.95
2018-04-27T06:25:52.243Z,1011.98
2018-04-27T06:26:52.157Z,1011.99
2018-04-27T06:27:52.054Z,1012.02
2018-04-27T06:28:51.963Z,1012.01
2018-04-27T06:29:51.868Z,1012.03
2018-04-27T06:30:51.781Z,1011.96
2018-04-27T06:31:51.693Z,1011.94
2018-04-27T06:32:51.583Z,1012.01
2018-04-27T06:33:51.491Z,1012.02
2018-04-27T06:34:51.390Z,1012.02
2018-04-27T06:35:51.297Z,1012.00
2018-04-27T06:36:51.206Z,1011.96
2018-04-27T06:37:51.116Z,1012.00
2018-04-27T06:38:51.021Z,1011.97
2018-04-27T06:39:51.171Z,1011.95
2018-04-27T06:40:50.832Z,1011.97
2018-04-27T06:41:50.776Z,1011.90
2018-04-27T06:42:50.649Z,1011.95
2018-04-27T06:43:50.547Z,1011.96
2018-04-27T06:44:50.454Z,1011.95
2018-04-27T06:45:50.364Z,1011.99
2018-04-27T06:46:50.273Z,1011.98
2018-04-27T06:47:50.183Z,1011.99
2018-04-27T06:48:50.080Z,1012.00
2018-04-27T06:49:49.988Z,1011.98
2018-04-27T06:50:49.897Z,1011.99
2018-04-27T06:51:49.806Z,1011.93
2018-04-27T06:52:49.716Z,1011.91
2018-04-27T06:53:49.624Z,1011.90
2018-04-27T06:54:49.536Z,1011.92
2018-04-27T06:55:49.434Z,1011.94
2018-04-27T06:56:49.341Z,1011.94
2018-04-27T06:57:49.250Z,1011.97
2018-04-27T06:58:49.158Z,1011.96
2018-04-27T06:59:49.068Z,1011.98
2018-04-27T07:00:48.976Z,1011.96
2018-04-27T07:01:48.887Z,1011.99
2018-04-27T07:02:48.798Z,1011.94
2018-04-27T07:03:48.704Z,1011.93
2018-04-27T07:04:48.613Z,1011.98
2018-04-27T07:05:48.523Z,1011.94
2018-04-27T07:06:48.432Z,1011.92
2018-04-27T07:07:48.348Z,1011.97
2018-04-27T07:08:48.250Z,1011.97
2018-04-27T07:09:48.162Z,1011.97
2018-04-27T07:10:48.068Z,1011.96
2018-04-27T07:11:47.984Z,1011.95
2018-04-27T07:12:47.887Z,1011.95
2018-04-27T07:13:47.798Z,1011.97
2018-04-27T07:14:47.706Z,1011.94
2018-04-27T07:15:47.615Z,1011.96
2018-04-27T07:16:47.557Z,1011.95
2018-04-27T07:17:47.434Z,1012.02
2018-04-27T07:18:47.343Z,1011.96
2018-04-27T07:19:47.264Z,1011.98
2018-04-27T07:20:47.175Z,1011.96
2018-04-27T07:21:47.082Z,1012.01
2018-04-27T07:22:46.993Z,1011.97
2018-04-27T07:23:46.901Z,1011.89
2018-04-27T07:24:46.816Z,1011.92
2018-04-27T07:25:46.721Z,1011.85
2018-04-27T07:26:46.630Z,1011.79
2018-04-27T07:27:46.538Z,1011.79
2018-04-27T07:28:46.456Z,1011.81
2018-04-27T07:29:46.357Z,1011.79
2018-04-27T07:30:46.278Z,1011.75
2018-04-27T07:31:46.187Z,1011.73
2018-04-27T07:32:46.096Z,1011.70
2018-04-27T07:33:46.006Z,1011.71
2018-04-27T07:34:45.918Z,1011.67
2018-04-27T07:35:45.825Z,1011.62
2018-04-27T07:36:45.733Z,1011.66
2018-04-27T07:37:45.646Z,1011.68
2018-04-27T07:38:45.551Z,1011.67
2018-04-27T07:39:45.545Z,1011.68
2018-04-27T07:40:45.359Z,1011.67
2018-04-27T07:41:45.267Z,1011.63
2018-04-27T07:42:45.178Z,1011.64
2018-04-27T07:43:45.085Z,1011.65
2018-04-27T07:44:44.993Z,1011.67
2018-04-27T07:45:44.903Z,1011.68
2018-04-27T07:46:44.820Z,1011.64
2018-04-27T07:47:44.721Z,1011.62
2018-04-27T07:48:44.631Z,1011.59
2018-04-27T07:49:44.527Z,1011.62
2018-04-27T07:50:44.439Z,1011.59
2018-04-27T07:51:44.347Z,1011.59
2018-04-27T07:52:44.255Z,1011.62
2018-04-27T07:53:44.164Z,1011.58
2018-04-27T07:54:44.061Z,1011.60
2018-04-27T07:55:43.969Z,1011.63
2018-04-27T07:56:43.879Z,1011.58
2018-04-27T07:57:43.788Z,1011.55
2018-04-27T07:58:43.686Z,1011.57
2018-04-27T07:59:43.597Z,1011.55
2018-04-27T08:00:43.503Z,1011.58
2018-04-27T08:01:43.412Z,1011.60
2018-04-27T08:02:43.321Z,1011.56
2018-04-27T08:03:43.218Z,1011.55
2018-04-27T08:04:43.129Z,1011.52
2018-04-27T08:05:43.036Z,1011.56
2018-04-27T08:06:42.933Z,1011.52
2018-04-27T08:07:42.843Z,1011.52
2018-04-27T08:08:42.752Z,1011.52
2018-04-27T08:09:42.650Z,1011.50
2018-04-27T08:10:42.560Z,1011.47
2018-04-27T08:11:42.466Z,1011.46
2018-04-27T08:12:42.377Z,1011.49
2018-04-27T08:13:42.273Z,1011.48
2018-04-27T08:14:42.182Z,1011.48
2018-04-27T08:15:42.091Z,1011.49
2018-04-27T08:16:41.989Z,1011.49
2018-04-27T08:17:41.896Z,1011.44
2018-04-27T08:18:41.845Z,1011.46
2018-04-27T08:19:41.703Z,1011.47
2018-04-27T08:20:41.612Z,1011.50
2018-04-27T08:21:41.521Z,1011.47
2018-04-27T08:22:41.418Z,1011.50
2018-04-27T08:23:41.326Z,1011.51
2018-04-27T08:24:41.238Z,1011.47
2018-04-27T08:25:41.133Z,1011.49
2018-04-27T08:26:41.041Z,1011.50
2018-04-27T08:27:40.951Z,1011.51
2018-04-27T08:28:40.848Z,1011.50
2018-04-27T08:29:40.756Z,1011.50
2018-04-27T08:30:40.655Z,1011.50
2018-04-27T08:31:40.563Z,1011.48
2018-04-27T08:32:40.471Z,1011.47
2018-04-27T08:33:40.368Z,1011.43
2018-04-27T08:34:40.277Z,1011.44
2018-04-27T08:35:40.186Z,1011.46
2018-04-27T08:36:40.083Z,1011.45
2018-04-27T08:37:40.006Z,1011.51
2018-04-27T08:38:39.889Z,1011.48
2018-04-27T08:39:39.798Z,1011.45
2018-04-27T08:40:39.708Z,1011.43
2018-04-27T08:41:39.605Z,1011.38
2018-04-27T08:42:39.513Z,1011.45
2018-04-27T08:43:39.410Z,1011.42
2018-04-27T08:44:39.320Z,1011.39
2018-04-27T08:45:39.228Z,1011.41
2018-04-27T08:46:39.125Z,1011.43
2018-04-27T08:47:39.034Z,1011.41
2018-04-27T08:48:38.931Z,1011.46
2018-04-27T08:49:38.840Z,1011.43
2018-04-27T08:50:38.739Z,1011.52
2018-04-27T08:51:38.648Z,1011.52
2018-04-27T08:52:38.555Z,1011.55
2018-04-27T08:53:38.454Z,1011.59
2018-04-27T08:54:38.362Z,1011.65
2018-04-27T08:55:38.259Z,1011.59
2018-04-27T08:56:38.167Z,1011.66
2018-04-27T08:57:38.066Z,1011.57
2018-04-27T08:58:37.974Z,1011.61
2018-04-27T08:59:37.884Z,1011.62
2018-04-27T09:00:37.781Z,1011.64
2018-04-27T09:01:37.689Z,1011.68
2018-04-27T09:02:37.588Z,1011.68
2018-04-27T09:03:37.495Z,1011.45
2018-04-27T09:04:37.392Z,1011.61
2018-04-27T09:05:37.302Z,1011.64
2018-04-27T09:06:37.211Z,1011.62
2018-04-27T09:07:37.107Z,1011.55
2018-04-27T09:08:37.017Z,1011.56
2018-04-27T09:09:36.926Z,1011.63
2018-04-27T09:10:36.824Z,1011.64
2018-04-27T09:11:36.734Z,1011.59
2018-04-27T09:12:36.641Z,1011.30
2018-04-27T09:13:36.551Z,1011.35
2018-04-27T09:14:36.461Z,1011.64
2018-04-27T09:15:36.370Z,1011.64
2018-04-27T09:16:36.291Z,1011.32
2018-04-27T09:17:36.188Z,1011.60
2018-04-27T09:18:36.096Z,1011.59
2018-04-27T09:19:35.995Z,1011.59
2018-04-27T09:20:35.905Z,1011.61
2018-04-27T09:21:35.834Z,1011.53
2018-04-27T09:22:35.733Z,1011.52
2018-04-27T09:23:35.644Z,1011.22
2018-04-27T09:24:35.552Z,1011.31
2018-04-27T09:25:35.475Z,1011.51
2018-04-27T09:26:35.370Z,1011.61
2018-04-27T09:27:35.280Z,1011.63
2018-04-27T09:28:35.189Z,1011.70
2018-04-27T09:29:35.103Z,1011.69
2018-04-27T09:30:35.009Z,1011.63
2018-04-27T09:31:34.930Z,1011.65
2018-04-27T09:32:34.838Z,1011.60
2018-04-27T09:33:34.747Z,1011.64
2018-04-27T09:34:34.657Z,1011.61
2018-04-27T09:35:34.580Z,1011.63
2018-04-27T09:36:34.487Z,1011.62
2018-04-27T09:37:34.397Z,1011.63
2018-04-27T09:38:34.307Z,1011.61
2018-04-27T09:39:34.227Z,1011.59
2018-04-27T09:40:34.137Z,1011.56
2018-04-27T09:41:34.052Z,1011.56
2018-04-27T09:42:33.983Z,1011.57
2018-04-27T09:43:33.877Z,1011.55
2018-04-27T09:44:33.798Z,1011.51
2018-04-27T09:45:33.709Z,1011.56
2018-04-27T09:46:33.631Z,1011.48
2018-04-27T09:47:33.539Z,1011.54
2018-04-27T09:48:33.460Z,1011.51
2018-04-27T09:49:33.369Z,1011.51
2018-04-27T09:50:33.290Z,1011.45
2018-04-27T09:51:33.202Z,1011.43
2018-04-27T09:52:33.123Z,1011.46
2018-04-27T09:53:33.031Z,1011.44
2018-04-27T09:54:32.952Z,1011.38
2018-04-27T09:55:32.874Z,1011.36
2018-04-27T09:56:32.783Z,1011.32
2018-04-27T09:57:32.756Z,1011.34
2018-04-27T09:58:32.613Z,1011.32
2018-04-27T09:59:32.535Z,1011.30
2018-04-27T10:00:32.458Z,1011.26
2018-04-27T10:01:32.368Z,1011.27
2018-04-27T10:02:32.288Z,1011.23
2018-04-27T10:03:32.198Z,1011.23
2018-04-27T10:04:32.130Z,1011.22
2018-04-27T10:05:32.039Z,1011.28
2018-04-27T10:06:31.961Z,1011.23
2018-04-27T10:07:31.870Z,1011.26
2018-04-27T10:08:31.793Z,1011.20
2018-04-27T10:09:31.714Z,1011.13
2018-04-27T10:10:31.623Z,1011.13
2018-04-27T10:11:31.545Z,1011.07
2018-04-27T10:12:31.466Z,1011.10
2018-04-27T10:13:31.388Z,1011.13
2018-04-27T10:14:31.298Z,1011.13
2018-04-27T10:15:31.220Z,1011.05
2018-04-27T10:16:31.143Z,1011.06
2018-04-27T10:17:31.063Z,1011.03
2018-04-27T10:18:30.972Z,1010.95
2018-04-27T10:19:30.893Z,1010.95
2018-04-27T10:20:30.843Z,1010.95
2018-04-27T10:21:30.737Z,1010.95
2018-04-27T10:22:30.660Z,1010.94
2018-04-27T10:23:30.580Z,1010.94
2018-04-27T10:24:30.490Z,1010.93
2018-04-27T10:25:30.412Z,1010.97
2018-04-27T10:26:30.333Z,1010.99
2018-04-27T10:27:30.256Z,1010.96
2018-04-27T10:28:30.178Z,1010.92
2018-04-27T10:29:30.100Z,1010.93
2018-04-27T10:30:30.024Z,1010.95
2018-04-27T10:31:29.930Z,1010.87
2018-04-27T10:32:29.851Z,1010.91
2018-04-27T10:33:29.772Z,1010.87
2018-04-27T10:34:29.694Z,1010.89
2018-04-27T10:35:29.615Z,1010.89
2018-04-27T10:36:29.622Z,1010.86
2018-04-27T10:37:29.459Z,1010.76
2018-04-27T10:38:29.379Z,1010.77
2018-04-27T10:39:29.301Z,1010.73
2018-04-27T10:40:29.223Z,1010.71
2018-04-27T10:41:29.146Z,1010.59
2018-04-27T10:42:29.065Z,1010.72
2018-04-27T10:43:28.988Z,1010.69
2018-04-27T10:44:28.912Z,1010.72
2018-04-27T10:45:28.831Z,1010.68
2018-04-27T10:46:28.752Z,1010.69
2018-04-27T10:47:28.674Z,1010.71
2018-04-27T10:48:28.596Z,1010.68
2018-04-27T10:49:28.520Z,1010.67
2018-04-27T10:50:28.440Z,1010.65
2018-04-27T10:51:28.365Z,1010.52
2018-04-27T10:52:28.274Z,1010.56
2018-04-27T10:53:28.194Z,1010.56
2018-04-27T10:54:28.115Z,1010.55
2018-04-27T10:55:28.048Z,1010.55
2018-04-27T10:56:27.958Z,1010.54
2018-04-27T10:57:27.891Z,1010.53
2018-04-27T10:58:27.816Z,1010.58
2018-04-27T10:59:27.747Z,1010.43
2018-04-27T11:00:27.657Z,1010.38
2018-04-27T11:01:27.626Z,1010.40
2018-04-27T11:02:27.500Z,1010.32
2018-04-27T11:03:27.445Z,1010.32
2018-04-27T11:04:27.343Z,1010.20
2018-04-27T11:05:27.265Z,1010.30
2018-04-27T11:06:27.187Z,1010.35
2018-04-27T11:07:27.097Z,1010.31
2018-04-27T11:08:27.019Z,1010.32
2018-04-27T11:09:26.940Z,1010.29
2018-04-27T11:10:26.862Z,1010.27
2018-04-27T11:11:26.784Z,1010.26
2018-04-27T11:12:26.705Z,1010.25
2018-04-27T11:13:26.627Z,1010.24
2018-04-27T11:14:26.536Z,1010.07
2018-04-27T11:15:26.458Z,1010.03
2018-04-27T11:16:26.381Z,1010.01
2018-04-27T11:20:26.055Z,1010.08
2018-04-27T11:21:25.971Z,1010.05
2018-04-27T11:22:25.886Z,1009.90
2018-04-27T11:23:25.808Z,1009.98
2018-04-27T11:24:25.718Z,1009.93
2018-04-27T11:25:25.638Z,1009.94
2018-04-27T11:26:25.548Z,1009.95
2018-04-27T11:31:25.136Z,1009.80
2018-04-27T11:32:25.053Z,1009.76
2018-04-27T11:33:24.962Z,1009.83
2018-04-27T11:34:24.884Z,1009.83
2018-04-27T11:35:24.793Z,1009.80
2018-04-27T11:36:24.704Z,1009.84
2018-04-27T11:37:24.625Z,1009.76
2018-04-27T11:38:24.533Z,1009.73
2018-04-27T11:39:24.455Z,1009.67
2018-04-27T11:40:24.365Z,1009.68
2018-04-27T11:41:24.272Z,1009.64
2018-04-27T11:42:24.195Z,1009.64
2018-04-27T11:43:24.108Z,1009.63
2018-04-27T11:44:24.013Z,1009.63
2018-04-27T11:45:23.922Z,1009.59
2018-04-27T11:46:23.845Z,1009.59
2018-04-27T11:47:23.754Z,1009.58
2018-04-27T11:48:23.662Z,1009.55
2018-04-27T11:49:23.572Z,1009.59
2018-04-27T11:50:23.488Z,1009.69
2018-04-27T11:51:23.403Z,1009.68
2018-04-27T11:52:23.324Z,1009.64
2018-04-27T11:53:23.221Z,1009.66
2018-04-27T11:54:23.129Z,1009.62
2018-04-27T11:55:23.040Z,1009.54
2018-04-27T11:56:22.947Z,1009.54
2018-04-27T11:57:22.858Z,1009.51
2018-04-27T11:58:22.766Z,1009.52
2018-04-27T11:59:22.677Z,1009.56
2018-04-27T12:00:22.584Z,1009.54
2018-04-27T12:01:22.494Z,1009.54
2018-04-27T12:02:22.407Z,1009.52
2018-04-27T12:03:22.315Z,1009.45
2018-04-27T12:04:22.222Z,1009.49
2018-04-27T12:05:22.130Z,1009.52
2018-04-27T12:06:22.040Z,1009.55
2018-04-27T12:07:21.950Z,1009.52
2018-04-27T12:08:21.858Z,1009.52
2018-04-27T12:09:21.768Z,1009.53
2018-04-27T12:10:21.690Z,1009.48
2018-04-27T12:11:21.586Z,1009.46